Stations météo

réclame
Mon MeteoGroup
Tarfala, Suède (2029): Température de l'air & dewpoint: 18.02.2018 13:00:00 - 24.02.2018 13:00:00 (CET)Tarfala, Suède (2029): Vitesse du vent & gusts: 18.02.2018 13:00:00 - 24.02.2018 13:00:00 (CET)Tarfala, Suède (2029): Direction du vent: 18.02.2018 13:00:00 - 24.02.2018 13:00:00 (CET)
Date & Time tt [°C] td [°C] ff [km/h] ff [knt] fx [km/h] fx [knt] dd
24.02.2018 13:00:00 - - - - - - -
24.02.2018 12:00:00 -18,7 -21,3 4 2 19 10 NNE
24.02.2018 11:00:00 -19,8 -21,8 10 5 13 7 NNW
24.02.2018 10:00:00 -19,5 -21,6 3 2 11 6 SE
24.02.2018 09:00:00 -17,4 -19,6 5 3 13 7 NNE
24.02.2018 08:00:00 -20,2 -22,1 10 5 13 7 NW
24.02.2018 07:00:00 -19,7 -21,8 5 3 13 7 NNW
24.02.2018 06:00:00 -18,6 -20,9 3 2 12 7 N
24.02.2018 05:00:00 -18,6 -21,3 6 3 12 7 N
24.02.2018 04:00:00 -21,0 -23,7 8 5 14 8 NW
24.02.2018 03:00:00 -20,3 -22,4 7 4 12 7 NW
24.02.2018 02:00:00 -21,4 -23,9 8 4 12 7 NNW
24.02.2018 01:00:00 -19,8 -21,9 5 3 10 5 NNW
24.02.2018 00:00:00 -18,5 -20,8 3 2 9 5 NNE
23.02.2018 23:00:00 -18,6 -21,2 2 1 11 6 E
23.02.2018 22:00:00 -16,2 -18,8 5 3 12 6 N
23.02.2018 21:00:00 -17,0 -19,1 6 3 7 4 NNW
23.02.2018 20:00:00 -16,9 -19,1 2 1 9 5 NW
23.02.2018 19:00:00 -17,2 -19,4 5 3 9 5 N
23.02.2018 18:00:00 -17,2 -19,4 4 2 9 5 N
23.02.2018 17:00:00 -17,7 -19,6 6 4 9 5 NNW
23.02.2018 16:00:00 -16,0 -18,5 3 2 10 5 WNW
23.02.2018 15:00:00 -16,2 -19,4 10 5 16 9 E
23.02.2018 14:00:00 -15,7 -19,8 6 4 14 8 SSE
23.02.2018 13:00:00 -14,7 -17,4 11 6 16 9 SSE
23.02.2018 12:00:00 -14,4 -16,5 3 1 9 5 WNW
23.02.2018 11:00:00 -16,7 -18,6 4 2 13 7 N
23.02.2018 10:00:00 -16,2 -17,9 6 3 9 5 N
23.02.2018 09:00:00 -16,5 -17,9 4 2 10 5 NNW
23.02.2018 08:00:00 -17,1 -19,2 6 3 15 8 N
23.02.2018 07:00:00 -19,7 -21,7 11 6 14 8 NW
23.02.2018 06:00:00 -18,5 -20,4 4 2 15 8 ENE
23.02.2018 05:00:00 -18,7 -21,3 8 4 14 7 N
23.02.2018 04:00:00 -17,3 -19,8 5 3 16 9 N
23.02.2018 03:00:00 -14,7 -17,7 7 4 15 8 E
23.02.2018 02:00:00 -14,9 -18,2 9 5 37 20 NNW
23.02.2018 01:00:00 -15,2 -18,9 5 3 29 16 N
23.02.2018 00:00:00 -13,0 -16,3 12 6 30 16 ENE
22.02.2018 23:00:00 -14,3 -18,2 10 5 27 14 WNW
22.02.2018 22:00:00 -13,0 -16,8 9 5 19 11 E
22.02.2018 21:00:00 -15,2 -19,1 6 3 15 8 NNW
22.02.2018 20:00:00 -16,6 -21,6 8 4 16 9 NNW
22.02.2018 19:00:00 -16,6 -20,0 8 4 15 8 NNW
22.02.2018 18:00:00 -17,5 -21,0 8 4 18 10 NNW
22.02.2018 17:00:00 -16,4 -19,9 6 4 16 9 NNW
22.02.2018 16:00:00 -15,6 -19,3 6 3 13 7 NW
22.02.2018 15:00:00 -14,3 -19,8 9 5 21 11 NNE
22.02.2018 14:00:00 -13,9 -22,1 9 5 14 8 NNW
22.02.2018 13:00:00 -14,3 -22,9 4 2 13 7 WNW
22.02.2018 12:00:00 -14,5 -23,3 7 4 14 7 NNW
22.02.2018 11:00:00 -13,9 -23,5 4 2 13 7 N
22.02.2018 10:00:00 -13,9 -22,8 6 3 13 7 NNW
22.02.2018 09:00:00 -14,2 -22,4 7 4 13 7 SSE
22.02.2018 08:00:00 -12,6 -20,9 5 3 16 9 NNW
22.02.2018 07:00:00 -12,1 -23,0 8 4 16 9 NNW
22.02.2018 06:00:00 -13,1 -25,3 8 4 13 7 NW
22.02.2018 05:00:00 -12,9 -29,3 7 4 14 8 N
22.02.2018 04:00:00 -12,4 -30,2 5 3 13 7 NNW
22.02.2018 03:00:00 -12,2 -30,1 7 4 13 7 NNW
22.02.2018 02:00:00 -13,7 -30,9 7 4 11 6 NW
22.02.2018 01:00:00 -12,6 -30,4 7 4 13 7 NNW
22.02.2018 00:00:00 -13,9 -30,6 8 4 13 7 NW
21.02.2018 23:00:00 -14,1 -30,3 8 4 10 6 NW
21.02.2018 22:00:00 -13,4 -30,1 7 4 10 6 NNW
21.02.2018 21:00:00 -12,8 -30,1 7 4 10 5 NW
21.02.2018 20:00:00 -12,6 -29,4 7 4 13 7 NNW
21.02.2018 19:00:00 -13,2 -30,0 7 4 12 6 NW
21.02.2018 18:00:00 -12,2 -29,6 6 4 11 6 NNW
21.02.2018 17:00:00 -12,5 -29,8 7 4 13 7 NW
21.02.2018 16:00:00 -13,0 -31,3 8 5 14 8 NNW
21.02.2018 15:00:00 -12,5 -31,4 8 5 17 9 NNW
21.02.2018 14:00:00 -14,0 -29,4 10 5 15 8 NW
21.02.2018 13:00:00 -12,2 -29,6 10 5 17 9 NNW
21.02.2018 12:00:00 -12,8 -29,2 9 5 12 6 NNW
21.02.2018 11:00:00 -12,9 -30,7 6 4 12 7 NNW
21.02.2018 10:00:00 -12,8 -30,6 6 3 12 6 N
21.02.2018 09:00:00 -14,7 -30,4 8 4 13 7 NNW
21.02.2018 08:00:00 -16,4 -29,9 7 4 10 5 NNW
21.02.2018 07:00:00 -16,8 -29,6 3 1 9 5 SE
21.02.2018 06:00:00 -16,6 -29,5 5 3 11 6 NNW
21.02.2018 05:00:00 -19,1 -29,3 10 5 13 7 NNW
21.02.2018 04:00:00 -20,0 -28,4 6 3 10 5 NW
21.02.2018 03:00:00 -18,9 -25,1 9 5 13 7 NNW
21.02.2018 02:00:00 -21,0 -24,1 8 4 13 7 NNW
21.02.2018 01:00:00 -21,8 -23,8 10 5 13 7 NW
21.02.2018 00:00:00 -20,7 -22,6 6 3 11 6 NNW
20.02.2018 23:00:00 -20,7 -22,7 5 3 10 5 NNW
20.02.2018 22:00:00 -19,7 -21,7 5 3 10 6 NNW
20.02.2018 21:00:00 -21,7 -24,4 9 5 14 8 NE
20.02.2018 20:00:00 -19,3 -21,9 5 3 16 9 N
20.02.2018 19:00:00 -19,6 -21,7 8 4 11 6 NW
20.02.2018 18:00:00 -20,6 -22,6 9 5 11 6 NW
20.02.2018 17:00:00 -19,5 -21,4 6 3 10 6 NNW
20.02.2018 16:00:00 -19,0 -20,9 5 3 11 6 NNW
20.02.2018 15:00:00 -18,7 -20,9 2 1 10 6 S
20.02.2018 14:00:00 -17,8 -19,7 6 3 9 5 NW
20.02.2018 13:00:00 -17,2 -19,4 6 3 9 5 NW
20.02.2018 12:00:00 -16,7 -18,9 5 3 6 3 NW
20.02.2018 11:00:00 -16,3 -18,2 4 2 8 5 NNW
20.02.2018 10:00:00 -17,2 -19,1 5 3 9 5 NW
20.02.2018 09:00:00 -16,8 -18,0 8 5 11 6 NNW
20.02.2018 08:00:00 -17,2 -18,3 1 1 4 2 E
20.02.2018 07:00:00 -16,7 -17,8 3 1 6 3 ESE
20.02.2018 06:00:00 -15,6 -17,1 2 1 5 3 NNW
20.02.2018 05:00:00 -15,1 -16,8 2 1 9 5 W
20.02.2018 04:00:00 -15,6 -17,0 3 2 8 4 NW
20.02.2018 03:00:00 -14,7 -17,1 3 1 5 3 SE
20.02.2018 02:00:00 -13,3 -15,6 2 1 9 5 W
20.02.2018 01:00:00 -15,9 -17,4 3 1 10 5 SE
20.02.2018 00:00:00 -14,1 -16,2 4 2 9 5 N
19.02.2018 23:00:00 -14,0 -16,4 3 2 14 7 WNW
19.02.2018 22:00:00 -13,5 -16,8 5 3 11 6 NNW
19.02.2018 21:00:00 -14,0 -17,2 6 3 10 5 NNW
19.02.2018 20:00:00 -13,2 -16,1 6 3 13 7 NNW
19.02.2018 19:00:00 -14,0 -16,8 7 4 12 6 NW
19.02.2018 18:00:00 -14,1 -17,1 5 3 12 6 NNW
19.02.2018 17:00:00 -15,4 -18,1 5 3 15 8 NW
19.02.2018 16:00:00 -14,2 -16,5 6 3 13 7 NNW
19.02.2018 15:00:00 -17,6 -18,8 8 4 12 7 NNW
19.02.2018 14:00:00 -16,3 -17,7 6 3 11 6 NNW
19.02.2018 13:00:00 -16,5 -17,9 8 4 11 6 NNW
19.02.2018 12:00:00 -18,0 -19,8 6 3 10 5 NNW
19.02.2018 11:00:00 -18,7 -20,3 7 4 10 6 NW
19.02.2018 10:00:00 -16,5 -18,6 2 1 7 4 ESE
19.02.2018 09:00:00 -17,1 -18,7 5 3 9 5 NNW
19.02.2018 08:00:00 -16,8 -18,6 5 3 7 4 NNW
19.02.2018 07:00:00 -17,0 -18,8 5 3 9 5 NNW
19.02.2018 06:00:00 -17,8 -20,0 1 1 7 4 W
19.02.2018 05:00:00 -14,4 -17,9 4 2 7 4 NNW
19.02.2018 04:00:00 -13,6 -17,4 5 3 10 5 NNW
19.02.2018 03:00:00 -14,7 -18,0 4 2 6 3 NNW
19.02.2018 02:00:00 -13,7 -18,2 2 1 9 5 NNW
19.02.2018 01:00:00 -15,6 -19,3 3 2 9 5 NW
19.02.2018 00:00:00 -14,2 -18,0 6 3 9 5 NNW
18.02.2018 23:00:00 -14,6 -18,9 1 1 9 5 SW
18.02.2018 22:00:00 -12,5 -17,7 3 1 8 5 N
18.02.2018 21:00:00 -12,4 -18,2 4 2 9 5 NW
18.02.2018 20:00:00 -11,2 -17,4 5 3 9 5 NNW
18.02.2018 19:00:00 -12,5 -18,9 7 4 10 6 NNW
18.02.2018 18:00:00 -11,5 -19,0 5 3 11 6 NNW
18.02.2018 17:00:00 -10,8 -18,7 6 4 11 6 NNW
18.02.2018 16:00:00 -13,4 -20,1 8 5 11 6 NNW
18.02.2018 15:00:00 -10,7 -18,6 8 4 10 6 NNW
18.02.2018 14:00:00 -9,8 -17,6 7 4 11 6 NNW
18.02.2018 13:00:00 -9,0 -17,8 6 4 10 6 NNW

tt = Température de l'air
td = dewpoint
ff = Vitesse du vent
fx = gusts
dd = Direction du vent

stations d'obs. à proximité